Station: EHBK - 28/05/2022 14:25Z (il y a 7 minutes)
EHBK 281425Z AUTO 32010KT 270V010 9999 NSC 15/04 Q1020 NOSIG
Vent du 320º - 10 kt (vent de direction variable de 270º à 010º)
Visibilité > 10 km
Pas de nuages significatifs
Température: +15ºC - Point de rosée: +04ºC - QNH: 1020 hPa
Pas de changement significatif prévu dans les 2 heures qui suivent l'observation